sensor_id;sensor_type;location;lat;lon;timestamp;P1;durP1;ratioP1;P2;durP2;ratioP2
13250;SDS011;6692;50.710;7.180;2024-01-15T00:00:31;19.33;;;12.60;;
13250;SDS011;6692;50.710;7.180;2024-01-15T00:02:32;22.43;;;13.20;;
13250;SDS011;6692;50.710;7.180;2024-01-15T00:04:37;18.83;;;12.27;;
13250;SDS011;6692;50.710;7.180;2024-01-15T00:06:37;20.98;;;12.00;;
13250;SDS011;6692;50.710;7.180;2024-01-15T00:08:38;18.93;;;11.83;;
13250;SDS011;6692;50.710;7.180;2024-01-15T00:10:39;21.40;;;13.93;;
13250;SDS011;6692;50.710;7.180;2024-01-15T00:12:40;21.50;;;13.17;;
13250;SDS011;6692;50.710;7.180;2024-01-15T00:14:40;22.37;;;14.23;;
13250;SDS011;6692;50.710;7.180;2024-01-15T00:16:42;20.63;;;12.27;;
13250;SDS011;6692;50.710;7.180;2024-01-15T00:18:43;21.02;;;12.95;;
13250;SDS011;6692;50.710;7.180;2024-01-15T00:20:43;19.60;;;12.40;;
13250;SDS011;6692;50.710;7.180;2024-01-15T00:22:44;22.00;;;13.03;;
13250;SDS011;6692;50.710;7.180;2024-01-15T00:24:45;20.40;;;12.33;;
13250;SDS011;6692;50.710;7.180;2024-01-15T00:26:46;21.57;;;12.30;;
13250;SDS011;6692;50.710;7.180;2024-01-15T00:28:46;19.97;;;12.87;;
13250;SDS011;6692;50.710;7.180;2024-01-15T00:30:47;23.93;;;12.77;;
13250;SDS011;6692;50.710;7.180;2024-01-15T00:32:48;22.37;;;12.77;;
13250;SDS011;6692;50.710;7.180;2024-01-15T00:34:49;23.43;;;13.37;;
13250;SDS011;6692;50.710;7.180;2024-01-15T00:36:49;20.67;;;13.53;;
13250;SDS011;6692;50.710;7.180;2024-01-15T00:38:51;24.80;;;12.67;;
13250;SDS011;6692;50.710;7.180;2024-01-15T00:40:52;20.27;;;11.80;;
13250;SDS011;6692;50.710;7.180;2024-01-15T00:42:52;21.33;;;12.30;;
13250;SDS011;6692;50.710;7.180;2024-01-15T00:44:53;21.07;;;12.23;;
13250;SDS011;6692;50.710;7.180;2024-01-15T00:46:55;20.27;;;13.23;;
13250;SDS011;6692;50.710;7.180;2024-01-15T00:48:55;23.95;;;14.27;;
13250;SDS011;6692;50.710;7.180;2024-01-15T00:50:56;19.63;;;12.33;;
13250;SDS011;6692;50.710;7.180;2024-01-15T00:52:57;20.93;;;12.63;;
13250;SDS011;6692;50.710;7.180;2024-01-15T00:54:58;19.43;;;12.60;;
13250;SDS011;6692;50.710;7.180;2024-01-15T00:56:59;17.12;;;10.35;;
13250;SDS011;6692;50.710;7.180;2024-01-15T00:59:00;26.70;;;12.23;;
13250;SDS011;6692;50.710;7.180;2024-01-15T01:01:01;20.15;;;11.38;;
13250;SDS011;6692;50.710;7.180;2024-01-15T01:03:02;19.30;;;11.57;;
13250;SDS011;6692;50.710;7.180;2024-01-15T01:05:03;20.27;;;11.43;;
13250;SDS011;6692;50.710;7.180;2024-01-15T01:07:04;21.65;;;12.25;;
13250;SDS011;6692;50.710;7.180;2024-01-15T01:09:05;18.47;;;11.60;;
13250;SDS011;6692;50.710;7.180;2024-01-15T01:11:06;20.27;;;12.10;;
13250;SDS011;6692;50.710;7.180;2024-01-15T01:13:08;19.98;;;12.05;;
13250;SDS011;6692;50.710;7.180;2024-01-15T01:15:09;19.73;;;11.93;;
13250;SDS011;6692;50.710;7.180;2024-01-15T01:17:11;18.90;;;10.93;;
13250;SDS011;6692;50.710;7.180;2024-01-15T01:19:11;20.77;;;11.93;;
13250;SDS011;6692;50.710;7.180;2024-01-15T01:21:13;19.63;;;11.57;;
13250;SDS011;6692;50.710;7.180;2024-01-15T01:23:14;20.88;;;11.93;;
13250;SDS011;6692;50.710;7.180;2024-01-15T01:25:15;16.43;;;11.17;;
13250;SDS011;6692;50.710;7.180;2024-01-15T01:27:15;17.70;;;11.27;;
13250;SDS011;6692;50.710;7.180;2024-01-15T01:29:16;19.00;;;10.73;;
13250;SDS011;6692;50.710;7.180;2024-01-15T01:31:17;16.20;;;11.17;;
13250;SDS011;6692;50.710;7.180;2024-01-15T01:33:18;19.23;;;12.10;;
13250;SDS011;6692;50.710;7.180;2024-01-15T01:35:18;17.93;;;11.00;;
13250;SDS011;6692;50.710;7.180;2024-01-15T01:37:19;18.63;;;10.90;;
13250;SDS011;6692;50.710;7.180;2024-01-15T01:39:21;19.63;;;11.87;;
13250;SDS011;6692;50.710;7.180;2024-01-15T01:41:21;18.65;;;11.55;;
13250;SDS011;6692;50.710;7.180;2024-01-15T01:43:22;23.13;;;10.83;;
13250;SDS011;6692;50.710;7.180;2024-01-15T01:45:23;22.77;;;11.87;;
13250;SDS011;6692;50.710;7.180;2024-01-15T01:47:24;20.33;;;11.57;;
13250;SDS011;6692;50.710;7.180;2024-01-15T01:49:26;22.73;;;12.05;;
13250;SDS011;6692;50.710;7.180;2024-01-15T01:51:26;21.23;;;12.07;;
13250;SDS011;6692;50.710;7.180;2024-01-15T01:53:26;24.50;;;13.27;;
13250;SDS011;6692;50.710;7.180;2024-01-15T01:55:27;20.30;;;11.90;;
13250;SDS011;6692;50.710;7.180;2024-01-15T01:57:28;19.47;;;10.73;;
13250;SDS011;6692;50.710;7.180;2024-01-15T01:59:29;20.77;;;12.47;;
13250;SDS011;6692;50.710;7.180;2024-01-15T02:01:30;21.17;;;11.57;;
13250;SDS011;6692;50.710;7.180;2024-01-15T02:03:30;18.27;;;11.33;;
13250;SDS011;6692;50.710;7.180;2024-01-15T02:05:31;17.03;;;9.67;;
13250;SDS011;6692;50.710;7.180;2024-01-15T02:07:34;18.73;;;10.50;;
13250;SDS011;6692;50.710;7.180;2024-01-15T02:09:32;23.47;;;12.13;;
13250;SDS011;6692;50.710;7.180;2024-01-15T02:11:33;18.93;;;11.13;;
13250;SDS011;6692;50.710;7.180;2024-01-15T02:13:34;20.50;;;11.80;;
13250;SDS011;6692;50.710;7.180;2024-01-15T02:15:34;21.20;;;11.00;;
13250;SDS011;6692;50.710;7.180;2024-01-15T02:17:42;19.53;;;11.00;;
13250;SDS011;6692;50.710;7.180;2024-01-15T02:19:37;20.27;;;11.20;;
13250;SDS011;6692;50.710;7.180;2024-01-15T02:21:37;21.85;;;12.73;;
13250;SDS011;6692;50.710;7.180;2024-01-15T02:23:38;18.23;;;12.10;;
13250;SDS011;6692;50.710;7.180;2024-01-15T02:25:39;19.17;;;11.70;;
13250;SDS011;6692;50.710;7.180;2024-01-15T02:27:40;18.37;;;12.47;;
13250;SDS011;6692;50.710;7.180;2024-01-15T02:29:40;24.60;;;13.77;;
13250;SDS011;6692;50.710;7.180;2024-01-15T02:31:41;26.67;;;13.60;;
13250;SDS011;6692;50.710;7.180;2024-01-15T02:33:43;27.30;;;13.83;;
13250;SDS011;6692;50.710;7.180;2024-01-15T02:35:43;21.62;;;13.98;;
13250;SDS011;6692;50.710;7.180;2024-01-15T02:37:44;23.60;;;14.17;;
13250;SDS011;6692;50.710;7.180;2024-01-15T02:39:45;26.67;;;13.07;;
13250;SDS011;6692;50.710;7.180;2024-01-15T02:41:46;26.77;;;14.10;;
13250;SDS011;6692;50.710;7.180;2024-01-15T02:43:47;27.63;;;14.10;;
13250;SDS011;6692;50.710;7.180;2024-01-15T02:45:48;25.83;;;15.13;;
13250;SDS011;6692;50.710;7.180;2024-01-15T02:47:49;24.20;;;13.62;;
13250;SDS011;6692;50.710;7.180;2024-01-15T02:49:51;20.83;;;13.52;;
13250;SDS011;6692;50.710;7.180;2024-01-15T02:51:52;24.60;;;13.88;;
13250;SDS011;6692;50.710;7.180;2024-01-15T02:53:53;24.53;;;13.90;;
13250;SDS011;6692;50.710;7.180;2024-01-15T02:55:54;22.85;;;13.62;;
13250;SDS011;6692;50.710;7.180;2024-01-15T02:57:57;25.40;;;15.07;;
13250;SDS011;6692;50.710;7.180;2024-01-15T02:59:59;27.35;;;15.10;;
13250;SDS011;6692;50.710;7.180;2024-01-15T03:02:03;24.83;;;14.68;;
13250;SDS011;6692;50.710;7.180;2024-01-15T03:04:05;24.48;;;14.87;;
13250;SDS011;6692;50.710;7.180;2024-01-15T03:06:07;24.87;;;14.80;;
13250;SDS011;6692;50.710;7.180;2024-01-15T03:08:07;23.47;;;15.00;;
13250;SDS011;6692;50.710;7.180;2024-01-15T03:10:09;28.40;;;15.50;;
13250;SDS011;6692;50.710;7.180;2024-01-15T03:14:20;23.95;;;14.90;;
13250;SDS011;6692;50.710;7.180;2024-01-15T03:16:22;24.73;;;14.95;;
13250;SDS011;6692;50.710;7.180;2024-01-15T03:18:24;22.90;;;13.53;;
13250;SDS011;6692;50.710;7.180;2024-01-15T03:20:25;24.83;;;15.68;;
13250;SDS011;6692;50.710;7.180;2024-01-15T03:22:26;26.92;;;15.27;;
13250;SDS011;6692;50.710;7.180;2024-01-15T03:24:29;22.27;;;15.00;;
13250;SDS011;6692;50.710;7.180;2024-01-15T03:26:29;27.90;;;15.57;;
13250;SDS011;6692;50.710;7.180;2024-01-15T03:28:30;22.03;;;14.47;;
13250;SDS011;6692;50.710;7.180;2024-01-15T03:30:31;24.70;;;15.23;;
13250;SDS011;6692;50.710;7.180;2024-01-15T03:32:32;24.70;;;15.10;;
13250;SDS011;6692;50.710;7.180;2024-01-15T03:34:33;24.03;;;13.93;;
13250;SDS011;6692;50.710;7.180;2024-01-15T03:36:35;23.87;;;14.27;;
13250;SDS011;6692;50.710;7.180;2024-01-15T03:38:39;22.62;;;14.18;;
13250;SDS011;6692;50.710;7.180;2024-01-15T03:40:38;22.67;;;14.90;;
13250;SDS011;6692;50.710;7.180;2024-01-15T03:42:39;23.23;;;13.95;;
13250;SDS011;6692;50.710;7.180;2024-01-15T03:44:40;21.13;;;13.37;;
13250;SDS011;6692;50.710;7.180;2024-01-15T03:46:41;23.03;;;14.30;;
13250;SDS011;6692;50.710;7.180;2024-01-15T03:48:42;20.60;;;13.50;;
13250;SDS011;6692;50.710;7.180;2024-01-15T03:50:42;20.83;;;13.00;;
13250;SDS011;6692;50.710;7.180;2024-01-15T03:52:43;20.27;;;13.70;;
13250;SDS011;6692;50.710;7.180;2024-01-15T03:54:44;21.13;;;13.23;;
13250;SDS011;6692;50.710;7.180;2024-01-15T03:56:45;22.53;;;14.13;;
13250;SDS011;6692;50.710;7.180;2024-01-15T03:58:46;22.47;;;13.90;;
13250;SDS011;6692;50.710;7.180;2024-01-15T04:00:47;18.60;;;13.17;;
13250;SDS011;6692;50.710;7.180;2024-01-15T04:02:47;22.42;;;14.57;;
13250;SDS011;6692;50.710;7.180;2024-01-15T04:04:48;21.00;;;13.53;;
13250;SDS011;6692;50.710;7.180;2024-01-15T04:06:49;18.67;;;13.03;;
13250;SDS011;6692;50.710;7.180;2024-01-15T04:08:50;20.03;;;13.07;;
13250;SDS011;6692;50.710;7.180;2024-01-15T04:10:50;21.50;;;12.37;;
13250;SDS011;6692;50.710;7.180;2024-01-15T04:12:51;21.53;;;13.47;;
13250;SDS011;6692;50.710;7.180;2024-01-15T04:14:52;18.63;;;13.70;;
13250;SDS011;6692;50.710;7.180;2024-01-15T04:16:53;19.90;;;13.40;;
13250;SDS011;6692;50.710;7.180;2024-01-15T04:18:53;18.57;;;11.97;;
13250;SDS011;6692;50.710;7.180;2024-01-15T04:20:54;18.87;;;12.23;;
13250;SDS011;6692;50.710;7.180;2024-01-15T04:22:55;19.53;;;13.50;;
13250;SDS011;6692;50.710;7.180;2024-01-15T04:24:56;22.77;;;13.85;;
13250;SDS011;6692;50.710;7.180;2024-01-15T04:26:58;20.87;;;13.47;;
13250;SDS011;6692;50.710;7.180;2024-01-15T04:28:59;19.60;;;12.25;;
13250;SDS011;6692;50.710;7.180;2024-01-15T04:30:59;19.03;;;13.40;;
13250;SDS011;6692;50.710;7.180;2024-01-15T04:33:00;19.60;;;12.87;;
13250;SDS011;6692;50.710;7.180;2024-01-15T04:35:01;19.07;;;13.33;;
13250;SDS011;6692;50.710;7.180;2024-01-15T04:37:02;17.07;;;12.43;;
13250;SDS011;6692;50.710;7.180;2024-01-15T04:39:03;17.05;;;11.50;;
13250;SDS011;6692;50.710;7.180;2024-01-15T04:41:04;20.10;;;12.43;;
13250;SDS011;6692;50.710;7.180;2024-01-15T04:43:04;21.33;;;13.03;;
13250;SDS011;6692;50.710;7.180;2024-01-15T04:45:05;21.50;;;13.13;;
13250;SDS011;6692;50.710;7.180;2024-01-15T04:47:06;18.77;;;12.55;;
13250;SDS011;6692;50.710;7.180;2024-01-15T04:49:07;19.10;;;13.13;;
13250;SDS011;6692;50.710;7.180;2024-01-15T04:51:08;21.37;;;12.70;;
13250;SDS011;6692;50.710;7.180;2024-01-15T04:53:09;17.92;;;11.93;;
13250;SDS011;6692;50.710;7.180;2024-01-15T04:55:10;16.63;;;11.43;;
13250;SDS011;6692;50.710;7.180;2024-01-15T04:57:10;19.17;;;12.00;;
13250;SDS011;6692;50.710;7.180;2024-01-15T04:59:11;17.40;;;10.97;;
13250;SDS011;6692;50.710;7.180;2024-01-15T05:01:12;17.77;;;11.87;;
13250;SDS011;6692;50.710;7.180;2024-01-15T05:03:13;16.13;;;11.33;;
13250;SDS011;6692;50.710;7.180;2024-01-15T05:05:13;14.10;;;9.83;;
13250;SDS011;6692;50.710;7.180;2024-01-15T05:07:14;14.40;;;10.40;;
13250;SDS011;6692;50.710;7.180;2024-01-15T05:09:15;16.30;;;11.60;;
13250;SDS011;6692;50.710;7.180;2024-01-15T05:11:16;16.77;;;11.93;;
13250;SDS011;6692;50.710;7.180;2024-01-15T05:13:17;18.77;;;10.52;;
13250;SDS011;6692;50.710;7.180;2024-01-15T05:15:18;16.20;;;12.10;;
13250;SDS011;6692;50.710;7.180;2024-01-15T05:17:19;15.17;;;10.60;;
13250;SDS011;6692;50.710;7.180;2024-01-15T05:19:20;15.90;;;11.05;;
13250;SDS011;6692;50.710;7.180;2024-01-15T05:21:20;18.27;;;11.70;;
13250;SDS011;6692;50.710;7.180;2024-01-15T05:23:21;17.70;;;11.20;;
13250;SDS011;6692;50.710;7.180;2024-01-15T05:25:22;16.97;;;11.43;;
13250;SDS011;6692;50.710;7.180;2024-01-15T05:27:23;18.13;;;11.27;;
13250;SDS011;6692;50.710;7.180;2024-01-15T05:29:23;16.50;;;11.47;;
13250;SDS011;6692;50.710;7.180;2024-01-15T05:31:24;18.17;;;12.33;;
13250;SDS011;6692;50.710;7.180;2024-01-15T05:33:25;17.20;;;11.70;;
13250;SDS011;6692;50.710;7.180;2024-01-15T05:35:26;20.73;;;12.53;;
13250;SDS011;6692;50.710;7.180;2024-01-15T05:37:27;15.82;;;10.80;;
13250;SDS011;6692;50.710;7.180;2024-01-15T05:39:28;15.33;;;10.37;;
13250;SDS011;6692;50.710;7.180;2024-01-15T05:41:28;18.57;;;12.50;;
13250;SDS011;6692;50.710;7.180;2024-01-15T05:43:29;16.70;;;11.07;;
13250;SDS011;6692;50.710;7.180;2024-01-15T05:45:30;15.23;;;10.47;;
13250;SDS011;6692;50.710;7.180;2024-01-15T05:47:30;18.03;;;11.53;;
13250;SDS011;6692;50.710;7.180;2024-01-15T05:49:31;19.77;;;11.03;;
13250;SDS011;6692;50.710;7.180;2024-01-15T05:51:32;16.13;;;11.03;;
13250;SDS011;6692;50.710;7.180;2024-01-15T05:53:32;17.13;;;10.93;;
13250;SDS011;6692;50.710;7.180;2024-01-15T05:55:35;14.03;;;10.93;;
13250;SDS011;6692;50.710;7.180;2024-01-15T05:57:35;18.62;;;11.23;;
13250;SDS011;6692;50.710;7.180;2024-01-15T05:59:35;15.53;;;11.13;;
13250;SDS011;6692;50.710;7.180;2024-01-15T06:01:37;17.67;;;11.03;;
13250;SDS011;6692;50.710;7.180;2024-01-15T06:03:38;17.60;;;11.65;;
13250;SDS011;6692;50.710;7.180;2024-01-15T06:05:39;15.83;;;10.63;;
13250;SDS011;6692;50.710;7.180;2024-01-15T06:07:40;18.10;;;10.60;;
13250;SDS011;6692;50.710;7.180;2024-01-15T06:09:40;16.23;;;11.17;;
13250;SDS011;6692;50.710;7.180;2024-01-15T06:11:41;15.43;;;10.30;;
13250;SDS011;6692;50.710;7.180;2024-01-15T06:13:42;15.67;;;11.30;;
13250;SDS011;6692;50.710;7.180;2024-01-15T06:15:42;18.70;;;11.70;;
13250;SDS011;6692;50.710;7.180;2024-01-15T06:17:43;16.93;;;11.67;;
13250;SDS011;6692;50.710;7.180;2024-01-15T06:19:44;19.37;;;11.43;;
13250;SDS011;6692;50.710;7.180;2024-01-15T06:21:45;15.10;;;11.20;;
13250;SDS011;6692;50.710;7.180;2024-01-15T06:23:45;19.83;;;11.90;;
13250;SDS011;6692;50.710;7.180;2024-01-15T06:25:46;16.60;;;11.47;;
13250;SDS011;6692;50.710;7.180;2024-01-15T06:27:47;20.40;;;11.50;;
13250;SDS011;6692;50.710;7.180;2024-01-15T06:29:48;15.53;;;10.67;;
13250;SDS011;6692;50.710;7.180;2024-01-15T06:31:50;15.27;;;10.65;;
13250;SDS011;6692;50.710;7.180;2024-01-15T06:33:50;15.52;;;10.75;;
13250;SDS011;6692;50.710;7.180;2024-01-15T06:35:51;16.27;;;11.30;;
13250;SDS011;6692;50.710;7.180;2024-01-15T06:37:52;18.23;;;11.87;;
13250;SDS011;6692;50.710;7.180;2024-01-15T06:39:52;17.50;;;10.87;;
13250;SDS011;6692;50.710;7.180;2024-01-15T06:41:53;16.77;;;11.00;;
13250;SDS011;6692;50.710;7.180;2024-01-15T06:43:54;15.63;;;10.43;;
13250;SDS011;6692;50.710;7.180;2024-01-15T06:45:55;17.47;;;10.90;;
13250;SDS011;6692;50.710;7.180;2024-01-15T06:47:55;14.90;;;11.07;;
13250;SDS011;6692;50.710;7.180;2024-01-15T06:49:57;20.23;;;11.57;;
13250;SDS011;6692;50.710;7.180;2024-01-15T06:51:57;15.00;;;11.00;;
13250;SDS011;6692;50.710;7.180;2024-01-15T06:53:58;17.97;;;12.03;;
13250;SDS011;6692;50.710;7.180;2024-01-15T06:55:59;18.90;;;11.97;;
13250;SDS011;6692;50.710;7.180;2024-01-15T06:57:59;16.63;;;11.70;;
13250;SDS011;6692;50.710;7.180;2024-01-15T07:00:00;18.43;;;11.23;;
13250;SDS011;6692;50.710;7.180;2024-01-15T07:02:02;19.27;;;11.73;;
13250;SDS011;6692;50.710;7.180;2024-01-15T07:04:02;17.40;;;11.15;;
13250;SDS011;6692;50.710;7.180;2024-01-15T07:06:04;19.30;;;12.60;;
13250;SDS011;6692;50.710;7.180;2024-01-15T07:08:05;17.52;;;12.45;;
13250;SDS011;6692;50.710;7.180;2024-01-15T07:10:07;22.42;;;12.70;;
13250;SDS011;6692;50.710;7.180;2024-01-15T07:12:09;16.65;;;11.27;;
13250;SDS011;6692;50.710;7.180;2024-01-15T07:14:10;17.77;;;11.63;;
13250;SDS011;6692;50.710;7.180;2024-01-15T07:16:10;15.33;;;10.67;;
13250;SDS011;6692;50.710;7.180;2024-01-15T07:18:11;17.13;;;11.77;;
13250;SDS011;6692;50.710;7.180;2024-01-15T07:20:11;15.53;;;10.10;;
13250;SDS011;6692;50.710;7.180;2024-01-15T07:22:12;18.30;;;11.87;;
13250;SDS011;6692;50.710;7.180;2024-01-15T07:24:13;18.90;;;11.57;;
13250;SDS011;6692;50.710;7.180;2024-01-15T07:26:14;19.70;;;11.70;;
13250;SDS011;6692;50.710;7.180;2024-01-15T07:28:16;15.57;;;9.90;;
13250;SDS011;6692;50.710;7.180;2024-01-15T07:30:16;17.02;;;10.68;;
13250;SDS011;6692;50.710;7.180;2024-01-15T07:32:17;14.30;;;10.47;;
13250;SDS011;6692;50.710;7.180;2024-01-15T07:34:18;16.23;;;11.43;;
13250;SDS011;6692;50.710;7.180;2024-01-15T07:36:19;19.27;;;11.87;;
13250;SDS011;6692;50.710;7.180;2024-01-15T07:38:19;14.03;;;9.97;;
13250;SDS011;6692;50.710;7.180;2024-01-15T07:40:20;15.67;;;10.47;;
13250;SDS011;6692;50.710;7.180;2024-01-15T07:42:21;15.80;;;11.47;;
13250;SDS011;6692;50.710;7.180;2024-01-15T07:44:22;19.57;;;12.53;;
13250;SDS011;6692;50.710;7.180;2024-01-15T07:46:22;15.30;;;11.33;;
13250;SDS011;6692;50.710;7.180;2024-01-15T07:48:23;16.87;;;11.23;;
13250;SDS011;6692;50.710;7.180;2024-01-15T07:50:24;17.67;;;11.33;;
13250;SDS011;6692;50.710;7.180;2024-01-15T07:52:26;15.95;;;10.75;;
13250;SDS011;6692;50.710;7.180;2024-01-15T07:54:27;16.25;;;11.30;;
13250;SDS011;6692;50.710;7.180;2024-01-15T07:56:27;16.40;;;11.53;;
13250;SDS011;6692;50.710;7.180;2024-01-15T07:58:28;17.40;;;10.47;;
13250;SDS011;6692;50.710;7.180;2024-01-15T08:00:29;17.37;;;11.00;;
13250;SDS011;6692;50.710;7.180;2024-01-15T08:02:29;17.53;;;10.33;;
13250;SDS011;6692;50.710;7.180;2024-01-15T08:04:30;20.17;;;11.97;;
13250;SDS011;6692;50.710;7.180;2024-01-15T08:06:31;20.47;;;13.00;;
13250;SDS011;6692;50.710;7.180;2024-01-15T08:08:31;15.43;;;10.50;;
13250;SDS011;6692;50.710;7.180;2024-01-15T08:10:32;15.60;;;11.27;;
13250;SDS011;6692;50.710;7.180;2024-01-15T08:12:33;11.87;;;9.03;;
13250;SDS011;6692;50.710;7.180;2024-01-15T08:14:34;14.43;;;9.43;;
13250;SDS011;6692;50.710;7.180;2024-01-15T08:16:35;11.37;;;8.83;;
13250;SDS011;6692;50.710;7.180;2024-01-15T08:18:35;16.87;;;10.93;;
13250;SDS011;6692;50.710;7.180;2024-01-15T08:20:36;15.77;;;9.47;;
13250;SDS011;6692;50.710;7.180;2024-01-15T08:22:38;15.37;;;9.80;;
13250;SDS011;6692;50.710;7.180;2024-01-15T08:24:37;17.63;;;10.73;;
13250;SDS011;6692;50.710;7.180;2024-01-15T08:26:38;18.50;;;10.20;;
13250;SDS011;6692;50.710;7.180;2024-01-15T08:28:39;18.07;;;10.77;;
13250;SDS011;6692;50.710;7.180;2024-01-15T08:30:39;13.57;;;9.87;;
13250;SDS011;6692;50.710;7.180;2024-01-15T08:32:40;13.93;;;9.47;;
13250;SDS011;6692;50.710;7.180;2024-01-15T08:34:41;12.77;;;9.27;;
13250;SDS011;6692;50.710;7.180;2024-01-15T08:36:41;14.40;;;9.00;;
13250;SDS011;6692;50.710;7.180;2024-01-15T08:38:43;13.70;;;9.20;;
13250;SDS011;6692;50.710;7.180;2024-01-15T08:40:44;15.18;;;9.32;;
13250;SDS011;6692;50.710;7.180;2024-01-15T08:42:45;11.40;;;8.50;;
13250;SDS011;6692;50.710;7.180;2024-01-15T08:44:46;12.17;;;8.43;;
13250;SDS011;6692;50.710;7.180;2024-01-15T08:46:47;12.80;;;10.03;;
13250;SDS011;6692;50.710;7.180;2024-01-15T08:48:47;13.43;;;9.23;;
13250;SDS011;6692;50.710;7.180;2024-01-15T08:50:48;13.73;;;9.20;;
13250;SDS011;6692;50.710;7.180;2024-01-15T08:52:49;16.20;;;10.00;;
13250;SDS011;6692;50.710;7.180;2024-01-15T08:54:50;15.47;;;9.63;;
13250;SDS011;6692;50.710;7.180;2024-01-15T08:56:50;15.73;;;10.33;;
13250;SDS011;6692;50.710;7.180;2024-01-15T08:58:51;17.07;;;9.73;;
13250;SDS011;6692;50.710;7.180;2024-01-15T09:00:52;20.07;;;11.70;;
13250;SDS011;6692;50.710;7.180;2024-01-15T09:02:52;16.83;;;10.17;;
13250;SDS011;6692;50.710;7.180;2024-01-15T09:04:53;15.47;;;9.87;;
13250;SDS011;6692;50.710;7.180;2024-01-15T09:06:54;19.57;;;11.67;;
13250;SDS011;6692;50.710;7.180;2024-01-15T09:08:54;15.37;;;10.97;;
13250;SDS011;6692;50.710;7.180;2024-01-15T09:10:55;16.10;;;10.40;;
13250;SDS011;6692;50.710;7.180;2024-01-15T09:12:56;17.10;;;10.53;;
13250;SDS011;6692;50.710;7.180;2024-01-15T09:14:57;16.40;;;10.30;;
13250;SDS011;6692;50.710;7.180;2024-01-15T09:16:57;20.90;;;11.73;;
13250;SDS011;6692;50.710;7.180;2024-01-15T09:18:58;16.73;;;10.03;;
13250;SDS011;6692;50.710;7.180;2024-01-15T09:20:59;19.33;;;11.40;;
13250;SDS011;6692;50.710;7.180;2024-01-15T09:22:59;19.10;;;11.40;;
13250;SDS011;6692;50.710;7.180;2024-01-15T09:25:00;18.50;;;10.90;;
13250;SDS011;6692;50.710;7.180;2024-01-15T09:27:01;21.57;;;10.57;;
13250;SDS011;6692;50.710;7.180;2024-01-15T09:29:02;17.27;;;10.33;;
13250;SDS011;6692;50.710;7.180;2024-01-15T09:31:03;18.53;;;10.50;;
13250;SDS011;6692;50.710;7.180;2024-01-15T09:33:05;18.73;;;11.15;;
13250;SDS011;6692;50.710;7.180;2024-01-15T09:35:06;17.42;;;9.75;;
13250;SDS011;6692;50.710;7.180;2024-01-15T09:37:07;14.45;;;9.73;;
13250;SDS011;6692;50.710;7.180;2024-01-15T09:39:08;14.00;;;8.67;;
13250;SDS011;6692;50.710;7.180;2024-01-15T09:41:08;15.33;;;9.33;;
13250;SDS011;6692;50.710;7.180;2024-01-15T09:43:10;18.63;;;9.83;;
13250;SDS011;6692;50.710;7.180;2024-01-15T09:45:11;12.93;;;8.88;;
13250;SDS011;6692;50.710;7.180;2024-01-15T09:47:12;16.10;;;9.88;;
13250;SDS011;6692;50.710;7.180;2024-01-15T09:49:13;17.20;;;9.70;;
13250;SDS011;6692;50.710;7.180;2024-01-15T09:51:13;11.37;;;9.07;;
13250;SDS011;6692;50.710;7.180;2024-01-15T09:53:14;15.40;;;9.33;;
13250;SDS011;6692;50.710;7.180;2024-01-15T09:55:15;15.43;;;9.67;;
13250;SDS011;6692;50.710;7.180;2024-01-15T09:57:16;15.33;;;8.93;;
13250;SDS011;6692;50.710;7.180;2024-01-15T09:59:18;13.07;;;9.02;;
13250;SDS011;6692;50.710;7.180;2024-01-15T10:01:19;14.77;;;8.20;;
13250;SDS011;6692;50.710;7.180;2024-01-15T10:03:19;13.77;;;8.17;;
13250;SDS011;6692;50.710;7.180;2024-01-15T10:05:19;20.47;;;9.43;;
13250;SDS011;6692;50.710;7.180;2024-01-15T10:07:20;12.83;;;8.20;;
13250;SDS011;6692;50.710;7.180;2024-01-15T10:09:21;10.50;;;7.23;;
13250;SDS011;6692;50.710;7.180;2024-01-15T10:11:21;14.27;;;7.77;;
13250;SDS011;6692;50.710;7.180;2024-01-15T10:13:23;12.27;;;7.83;;
13250;SDS011;6692;50.710;7.180;2024-01-15T10:15:24;14.43;;;7.07;;
13250;SDS011;6692;50.710;7.180;2024-01-15T10:17:24;10.17;;;7.53;;
13250;SDS011;6692;50.710;7.180;2024-01-15T10:19:26;12.40;;;7.47;;
13250;SDS011;6692;50.710;7.180;2024-01-15T10:21:26;9.73;;;7.40;;
13250;SDS011;6692;50.710;7.180;2024-01-15T10:23:27;10.40;;;8.40;;
13250;SDS011;6692;50.710;7.180;2024-01-15T10:25:29;11.03;;;7.53;;
13250;SDS011;6692;50.710;7.180;2024-01-15T10:27:29;9.63;;;7.57;;
13250;SDS011;6692;50.710;7.180;2024-01-15T10:29:29;11.80;;;7.83;;
13250;SDS011;6692;50.710;7.180;2024-01-15T10:31:30;10.63;;;7.70;;
13250;SDS011;6692;50.710;7.180;2024-01-15T10:33:31;11.57;;;7.20;;
13250;SDS011;6692;50.710;7.180;2024-01-15T10:35:32;11.40;;;7.97;;
13250;SDS011;6692;50.710;7.180;2024-01-15T10:37:32;11.07;;;8.60;;
13250;SDS011;6692;50.710;7.180;2024-01-15T10:39:33;12.80;;;8.83;;
13250;SDS011;6692;50.710;7.180;2024-01-15T10:41:34;12.13;;;8.87;;
13250;SDS011;6692;50.710;7.180;2024-01-15T10:43:35;14.37;;;9.20;;
13250;SDS011;6692;50.710;7.180;2024-01-15T10:45:37;12.45;;;9.02;;
13250;SDS011;6692;50.710;7.180;2024-01-15T10:47:37;13.45;;;10.32;;
13250;SDS011;6692;50.710;7.180;2024-01-15T10:49:38;12.00;;;9.73;;
13250;SDS011;6692;50.710;7.180;2024-01-15T10:51:39;12.37;;;8.83;;
13250;SDS011;6692;50.710;7.180;2024-01-15T10:53:40;11.40;;;8.97;;
13250;SDS011;6692;50.710;7.180;2024-01-15T10:55:42;15.07;;;9.48;;
13250;SDS011;6692;50.710;7.180;2024-01-15T10:57:42;11.50;;;9.52;;
13250;SDS011;6692;50.710;7.180;2024-01-15T10:59:43;13.03;;;9.90;;
13250;SDS011;6692;50.710;7.180;2024-01-15T11:01:45;9.70;;;7.63;;
13250;SDS011;6692;50.710;7.180;2024-01-15T11:03:46;9.73;;;8.10;;
13250;SDS011;6692;50.710;7.180;2024-01-15T11:05:47;11.27;;;8.85;;
13250;SDS011;6692;50.710;7.180;2024-01-15T11:07:48;12.25;;;9.38;;
13250;SDS011;6692;50.710;7.180;2024-01-15T11:09:49;14.93;;;9.30;;
13250;SDS011;6692;50.710;7.180;2024-01-15T11:11:52;10.77;;;8.63;;
13250;SDS011;6692;50.710;7.180;2024-01-15T11:13:51;10.85;;;8.10;;
13250;SDS011;6692;50.710;7.180;2024-01-15T11:15:57;10.20;;;9.10;;
13250;SDS011;6692;50.710;7.180;2024-01-15T11:17:58;9.88;;;8.30;;
13250;SDS011;6692;50.710;7.180;2024-01-15T11:19:58;10.17;;;7.90;;
13250;SDS011;6692;50.710;7.180;2024-01-15T11:21:59;9.43;;;7.50;;
13250;SDS011;6692;50.710;7.180;2024-01-15T11:24:00;9.80;;;7.33;;
13250;SDS011;6692;50.710;7.180;2024-01-15T11:26:01;9.83;;;8.47;;
13250;SDS011;6692;50.710;7.180;2024-01-15T11:28:03;9.30;;;8.38;;
13250;SDS011;6692;50.710;7.180;2024-01-15T11:30:04;9.25;;;8.30;;
13250;SDS011;6692;50.710;7.180;2024-01-15T11:32:06;9.82;;;8.13;;
13250;SDS011;6692;50.710;7.180;2024-01-15T11:34:10;8.48;;;7.57;;
13250;SDS011;6692;50.710;7.180;2024-01-15T11:36:11;9.90;;;7.80;;
13250;SDS011;6692;50.710;7.180;2024-01-15T11:38:18;8.68;;;7.68;;
13250;SDS011;6692;50.710;7.180;2024-01-15T11:40:13;9.57;;;7.50;;
13250;SDS011;6692;50.710;7.180;2024-01-15T11:42:14;12.43;;;7.63;;
13250;SDS011;6692;50.710;7.180;2024-01-15T11:44:15;9.73;;;8.00;;
13250;SDS011;6692;50.710;7.180;2024-01-15T11:46:15;8.20;;;7.30;;
13250;SDS011;6692;50.710;7.180;2024-01-15T11:48:16;10.07;;;8.37;;
13250;SDS011;6692;50.710;7.180;2024-01-15T11:50:17;9.53;;;8.47;;
13250;SDS011;6692;50.710;7.180;2024-01-15T11:52:18;11.33;;;8.23;;
13250;SDS011;6692;50.710;7.180;2024-01-15T11:54:18;11.03;;;8.13;;
13250;SDS011;6692;50.710;7.180;2024-01-15T11:56:19;11.83;;;8.43;;
13250;SDS011;6692;50.710;7.180;2024-01-15T11:58:20;9.33;;;8.27;;
13250;SDS011;6692;50.710;7.180;2024-01-15T12:00:21;10.37;;;8.00;;
13250;SDS011;6692;50.710;7.180;2024-01-15T12:02:21;11.73;;;8.60;;